createdAt,value
2023-03-26T00:01:49.813Z,10.95
2023-03-26T00:04:19.752Z,12.27
2023-03-26T00:06:50.293Z,5.85
2023-03-26T00:09:19.205Z,5.00
2023-03-26T00:11:47.355Z,10.15
2023-03-26T00:14:17.732Z,4.60
2023-03-26T00:16:47.458Z,9.82
2023-03-26T00:19:16.686Z,8.32
2023-03-26T00:21:44.548Z,3.67
2023-03-26T00:24:16.071Z,6.10
2023-03-26T00:26:48.471Z,4.05
2023-03-26T00:29:16.929Z,11.70
2023-03-26T00:31:45.995Z,6.45
2023-03-26T00:34:15.481Z,6.78
2023-03-26T00:36:43.979Z,8.55
2023-03-26T00:39:14.048Z,8.70
2023-03-26T00:41:43.166Z,8.38
2023-03-26T00:44:11.758Z,6.57
2023-03-26T00:46:40.022Z,5.97
2023-03-26T00:49:10.817Z,6.07
2023-03-26T00:51:39.589Z,7.28
2023-03-26T00:54:08.607Z,7.47
2023-03-26T00:56:38.732Z,7.05
2023-03-26T00:59:06.746Z,5.45
2023-03-26T01:01:34.686Z,3.67
2023-03-26T01:04:28.215Z,3.53
2023-03-26T01:06:58.491Z,6.32
2023-03-26T01:09:33.480Z,5.68
2023-03-26T01:12:05.698Z,8.85
2023-03-26T01:14:34.578Z,4.68
2023-03-26T01:17:04.402Z,8.25
2023-03-26T01:19:39.051Z,5.55
2023-03-26T01:22:11.118Z,6.53
2023-03-26T01:24:40.892Z,7.10
2023-03-26T01:27:19.890Z,6.03
2023-03-26T01:29:54.230Z,7.85
2023-03-26T01:32:41.124Z,7.35
2023-03-26T01:35:21.294Z,7.72
2023-03-26T01:38:00.714Z,10.20
2023-03-26T01:40:38.622Z,8.32
2023-03-26T01:45:40.731Z,15.85
2023-03-26T01:48:08.792Z,12.55
2023-03-26T01:50:36.688Z,8.40
2023-03-26T01:53:05.310Z,8.27
2023-03-26T01:55:43.509Z,9.35
2023-03-26T02:00:46.659Z,3.58
2023-03-26T02:03:23.475Z,7.78
2023-03-26T02:05:56.651Z,8.43
2023-03-26T02:08:31.551Z,8.35
2023-03-26T02:11:04.333Z,3.10
2023-03-26T02:13:33.089Z,7.50
2023-03-26T02:16:02.856Z,5.50
2023-03-26T02:18:36.679Z,9.30
2023-03-26T02:21:06.831Z,7.70
2023-03-26T02:23:36.690Z,9.45
2023-03-26T02:26:09.167Z,5.78
2023-03-26T02:28:37.331Z,10.38
2023-03-26T02:31:05.997Z,7.90
2023-03-26T02:33:33.948Z,6.10
2023-03-26T02:36:02.748Z,9.20
2023-03-26T02:38:33.663Z,7.32
2023-03-26T02:41:01.565Z,13.07
2023-03-26T02:43:30.863Z,13.45
2023-03-26T02:45:59.629Z,11.60
2023-03-26T02:48:27.590Z,14.80
2023-03-26T02:50:55.728Z,7.50
2023-03-26T02:53:29.596Z,9.40
2023-03-26T02:55:57.687Z,3.72
2023-03-26T02:58:26.273Z,7.40
2023-03-26T03:00:55.812Z,9.35
2023-03-26T03:03:24.330Z,13.02
2023-03-26T03:05:53.295Z,13.45
2023-03-26T03:08:22.701Z,7.72
2023-03-26T03:10:58.564Z,11.10
2023-03-26T03:13:26.701Z,12.25
2023-03-26T03:15:56.182Z,11.57
2023-03-26T03:18:24.218Z,12.25
2023-03-26T03:20:53.865Z,11.38
2023-03-26T03:23:22.084Z,10.60
2023-03-26T03:25:52.719Z,15.25
2023-03-26T03:28:20.889Z,8.15
2023-03-26T03:30:49.009Z,12.07
2023-03-26T03:33:20.336Z,10.43
2023-03-26T03:35:49.658Z,6.00
2023-03-26T03:38:18.129Z,8.32
2023-03-26T03:40:46.218Z,10.27
2023-03-26T03:43:14.069Z,4.80
2023-03-26T03:45:41.959Z,4.90
2023-03-26T03:48:09.868Z,11.23
2023-03-26T03:50:39.273Z,12.48
2023-03-26T03:53:07.375Z,12.75
2023-03-26T03:55:38.143Z,7.13
2023-03-26T03:58:09.123Z,10.00
2023-03-26T04:00:38.177Z,12.80
2023-03-26T04:03:06.398Z,10.63
2023-03-26T04:05:34.682Z,7.70
2023-03-26T04:08:03.903Z,12.38
2023-03-26T04:10:31.791Z,8.25
2023-03-26T04:12:59.806Z,4.25
2023-03-26T04:15:27.933Z,4.85
2023-03-26T04:17:55.894Z,6.05
2023-03-26T04:20:23.731Z,18.50
2023-03-26T04:22:52.748Z,11.82
2023-03-26T04:25:22.324Z,8.90
2023-03-26T04:27:50.365Z,6.22
2023-03-26T04:30:21.052Z,13.65
2023-03-26T04:32:49.039Z,7.57
2023-03-26T04:35:19.448Z,13.00
2023-03-26T04:37:47.710Z,5.20
2023-03-26T04:40:20.408Z,9.25
2023-03-26T04:42:49.687Z,9.75
2023-03-26T04:45:22.900Z,11.70
2023-03-26T04:47:51.588Z,12.40
2023-03-26T04:50:19.535Z,12.27
2023-03-26T04:52:47.424Z,6.60
2023-03-26T04:55:22.027Z,13.05
2023-03-26T04:57:56.111Z,11.18
2023-03-26T05:00:25.366Z,12.55
2023-03-26T05:02:56.036Z,10.10
2023-03-26T05:05:24.590Z,9.05
2023-03-26T05:07:52.562Z,8.45
2023-03-26T05:10:21.303Z,8.65
2023-03-26T05:12:49.370Z,7.68
2023-03-26T05:15:18.778Z,9.10
2023-03-26T05:17:46.834Z,9.32
2023-03-26T05:20:21.323Z,15.35
2023-03-26T05:22:50.287Z,8.18
2023-03-26T05:25:18.742Z,7.55
2023-03-26T05:27:46.867Z,14.60
2023-03-26T05:30:16.647Z,11.05
2023-03-26T05:32:47.250Z,15.27
2023-03-26T05:35:16.906Z,7.65
2023-03-26T05:37:45.468Z,10.77
2023-03-26T05:40:16.997Z,9.75
2023-03-26T05:42:46.021Z,14.18
2023-03-26T05:45:15.603Z,12.27
2023-03-26T05:47:44.984Z,14.07
2023-03-26T05:50:13.242Z,10.98
2023-03-26T05:52:41.088Z,15.55
2023-03-26T05:55:09.753Z,13.23
2023-03-26T05:57:37.644Z,6.82
2023-03-26T06:00:08.847Z,15.80
2023-03-26T06:02:36.854Z,10.88
2023-03-26T06:05:07.982Z,11.07
2023-03-26T06:07:36.042Z,8.73
2023-03-26T06:10:04.219Z,7.22
2023-03-26T06:12:32.037Z,8.63
2023-03-26T06:14:59.865Z,8.32
2023-03-26T06:17:27.731Z,9.93
2023-03-26T06:19:55.619Z,21.85
2023-03-26T06:22:24.785Z,13.73
2023-03-26T06:24:53.415Z,15.27
2023-03-26T06:27:21.337Z,7.22
2023-03-26T06:29:49.156Z,7.82
2023-03-26T06:32:20.191Z,6.40
2023-03-26T06:34:48.628Z,5.82
2023-03-26T06:37:16.757Z,8.38
2023-03-26T06:39:45.991Z,10.70
2023-03-26T06:42:13.939Z,9.35
2023-03-26T06:44:41.782Z,5.13
2023-03-26T06:47:09.625Z,10.70
2023-03-26T06:49:38.054Z,5.63
2023-03-26T06:52:06.335Z,5.65
2023-03-26T06:54:34.183Z,11.40
2023-03-26T06:57:03.452Z,13.38
2023-03-26T06:59:31.618Z,9.68
2023-03-26T07:01:59.499Z,9.55
2023-03-26T07:04:27.631Z,7.28
2023-03-26T07:06:55.902Z,8.68
2023-03-26T07:09:23.822Z,8.68
2023-03-26T07:11:51.713Z,7.45
2023-03-26T07:14:20.935Z,12.45
2023-03-26T07:16:49.128Z,6.85
2023-03-26T07:19:17.056Z,12.48
2023-03-26T07:21:46.536Z,10.75
2023-03-26T07:24:15.457Z,11.27
2023-03-26T07:26:52.842Z,8.90
2023-03-26T07:29:33.264Z,11.00
2023-03-26T07:32:07.802Z,8.60
2023-03-26T07:34:49.670Z,13.30
2023-03-26T07:37:30.774Z,9.13
2023-03-26T07:40:04.282Z,15.55
2023-03-26T07:42:44.444Z,10.02
2023-03-26T07:45:22.630Z,15.27
2023-03-26T07:50:23.938Z,15.40
2023-03-26T07:52:52.301Z,12.00
2023-03-26T07:55:21.508Z,8.50
2023-03-26T07:58:01.983Z,8.43
2023-03-26T08:00:38.308Z,8.80
2023-03-26T08:03:28.234Z,7.32
2023-03-26T08:06:08.593Z,6.68
2023-03-26T08:08:45.799Z,8.45
2023-03-26T08:11:26.278Z,13.20
2023-03-26T08:14:02.211Z,18.10
2023-03-26T08:16:37.490Z,13.32
2023-03-26T08:19:16.622Z,6.47
2023-03-26T08:21:48.965Z,19.52
2023-03-26T08:24:22.788Z,11.95
2023-03-26T08:26:58.931Z,11.27
2023-03-26T08:29:34.940Z,9.68
2023-03-26T08:32:06.275Z,17.08
2023-03-26T08:34:34.008Z,10.00
2023-03-26T08:37:02.468Z,12.40
2023-03-26T08:39:30.410Z,8.23
2023-03-26T08:42:36.773Z,9.45
2023-03-26T08:45:37.231Z,12.65
2023-03-26T08:48:47.196Z,8.70
2023-03-26T08:51:51.464Z,7.47
2023-03-26T08:54:47.836Z,9.38
2023-03-26T08:57:51.375Z,5.38
2023-03-26T09:00:36.992Z,10.40
2023-03-26T09:03:44.544Z,12.73
2023-03-26T09:06:43.774Z,7.15
2023-03-26T09:09:47.180Z,5.68
2023-03-26T09:12:50.654Z,4.60
2023-03-26T09:15:35.670Z,6.95
2023-03-26T09:18:48.688Z,5.15
2023-03-26T09:21:52.657Z,4.63
2023-03-26T09:24:55.447Z,4.05
2023-03-26T09:27:39.091Z,2.60
2023-03-26T09:30:33.650Z,3.25
2023-03-26T09:33:29.749Z,2.55
2023-03-26T09:36:20.312Z,1.63
2023-03-26T09:38:53.836Z,2.35
2023-03-26T09:41:42.339Z,3.47
2023-03-26T09:44:42.791Z,1.83
2023-03-26T09:47:29.697Z,1.83
2023-03-26T09:50:16.688Z,1.55
2023-03-26T09:52:58.865Z,1.98
2023-03-26T09:55:42.005Z,2.35
2023-03-26T09:58:33.243Z,3.05
2023-03-26T10:01:11.035Z,2.75
2023-03-26T10:03:46.788Z,2.05
2023-03-26T10:06:23.237Z,3.63
2023-03-26T10:09:02.588Z,4.53
2023-03-26T10:11:51.593Z,2.05
2023-03-26T10:14:25.612Z,1.85
2023-03-26T10:17:01.473Z,0.90
2023-03-26T10:19:46.427Z,2.45
2023-03-26T10:22:28.675Z,2.97
2023-03-26T10:25:14.836Z,4.38
2023-03-26T10:27:54.974Z,2.70
2023-03-26T10:30:36.367Z,1.92
2023-03-26T10:33:15.834Z,5.28
2023-03-26T10:35:54.311Z,2.90
2023-03-26T10:38:32.145Z,3.88
2023-03-26T10:41:07.506Z,1.23
2023-03-26T10:44:15.640Z,0.95
2023-03-26T10:47:06.817Z,2.53
2023-03-26T10:49:49.874Z,1.73
2023-03-26T10:52:20.889Z,1.08
2023-03-26T10:54:55.926Z,1.02
2023-03-26T10:57:34.301Z,0.98
2023-03-26T11:00:16.019Z,2.38
2023-03-26T11:02:54.646Z,1.10
2023-03-26T11:05:36.716Z,2.00
2023-03-26T11:08:11.179Z,1.23
2023-03-26T11:10:49.532Z,3.03
2023-03-26T11:13:28.210Z,1.20
2023-03-26T11:16:04.060Z,2.38
2023-03-26T11:18:40.080Z,4.47
2023-03-26T11:21:19.303Z,2.97
2023-03-26T11:24:06.646Z,2.10
2023-03-26T11:26:44.413Z,3.20
2023-03-26T11:29:32.344Z,1.05
2023-03-26T11:32:07.111Z,3.35
2023-03-26T11:34:39.798Z,1.60
2023-03-26T11:37:16.000Z,1.73
2023-03-26T11:39:50.890Z,3.80
2023-03-26T11:42:22.517Z,2.10
2023-03-26T11:44:56.068Z,2.38
2023-03-26T11:47:33.000Z,2.35
2023-03-26T11:50:02.694Z,4.18
2023-03-26T11:52:30.906Z,2.55
2023-03-26T11:54:59.372Z,3.53
2023-03-26T11:57:31.005Z,1.48
2023-03-26T12:00:04.317Z,0.95
2023-03-26T12:02:40.650Z,2.63
2023-03-26T12:05:19.285Z,2.78
2023-03-26T12:07:53.719Z,2.67
2023-03-26T12:10:27.446Z,4.63
2023-03-26T12:12:57.704Z,0.95
2023-03-26T12:15:26.605Z,1.17
2023-03-26T12:17:58.235Z,2.88
2023-03-26T12:20:38.633Z,2.35
2023-03-26T12:23:08.221Z,2.80
2023-03-26T12:25:38.688Z,3.72
2023-03-26T12:28:18.043Z,1.23
2023-03-26T12:30:59.011Z,4.28
2023-03-26T12:33:29.456Z,3.65
2023-03-26T12:36:00.349Z,2.75
2023-03-26T12:38:33.056Z,1.85
2023-03-26T12:41:06.810Z,2.00
2023-03-26T12:44:56.289Z,3.50
2023-03-26T12:47:58.788Z,1.90
2023-03-26T12:49:22.039Z,3.65
2023-03-26T12:51:52.771Z,3.47
2023-03-26T12:54:34.945Z,4.60
2023-03-26T12:57:19.745Z,1.83
2023-03-26T13:00:11.889Z,1.63
2023-03-26T13:03:03.614Z,2.00
2023-03-26T13:05:41.030Z,0.82
2023-03-26T13:08:38.024Z,2.13
2023-03-26T13:11:12.488Z,3.45
2023-03-26T13:14:02.901Z,2.88
2023-03-26T13:16:38.851Z,1.08
2023-03-26T13:19:13.415Z,3.67
2023-03-26T13:21:57.744Z,0.90
2023-03-26T13:24:35.667Z,1.48
2023-03-26T13:29:52.778Z,2.88
2023-03-26T13:32:30.128Z,3.10
2023-03-26T13:35:13.867Z,4.22
2023-03-26T13:37:49.992Z,2.88
2023-03-26T13:40:26.275Z,3.03
2023-03-26T13:43:15.020Z,4.00
2023-03-26T13:48:26.963Z,4.85
2023-03-26T13:51:01.590Z,2.67
2023-03-26T13:53:37.959Z,4.88
2023-03-26T13:56:11.326Z,2.08
2023-03-26T13:58:44.084Z,3.58
2023-03-26T14:01:17.373Z,3.30
2023-03-26T14:03:53.808Z,4.10
2023-03-26T14:06:43.409Z,12.68
2023-03-26T14:09:18.597Z,9.98
2023-03-26T14:12:03.597Z,4.80
2023-03-26T14:14:39.974Z,4.03
2023-03-26T14:17:17.173Z,3.55
2023-03-26T14:20:10.901Z,5.97
2023-03-26T14:22:53.010Z,6.70
2023-03-26T14:25:43.013Z,8.13
2023-03-26T14:28:48.414Z,3.13
2023-03-26T14:31:24.975Z,3.40
2023-03-26T14:34:04.796Z,6.18
2023-03-26T14:37:06.110Z,8.32
2023-03-26T14:39:53.540Z,1.92
2023-03-26T14:42:28.921Z,5.65
2023-03-26T14:45:10.408Z,6.10
2023-03-26T14:47:45.218Z,5.28
2023-03-26T14:50:51.300Z,2.75
2023-03-26T14:53:29.321Z,2.70
2023-03-26T14:56:41.019Z,3.10
2023-03-26T15:00:07.067Z,3.17
2023-03-26T15:03:38.591Z,3.67
2023-03-26T15:06:48.903Z,3.22
2023-03-26T15:09:50.963Z,2.13
2023-03-26T15:12:33.189Z,6.03
2023-03-26T15:15:39.735Z,10.48
2023-03-26T15:18:39.405Z,2.78
2023-03-26T15:21:54.182Z,8.02
2023-03-26T15:25:13.095Z,4.00
2023-03-26T15:27:58.557Z,3.35
2023-03-26T15:31:10.741Z,1.30
2023-03-26T15:34:00.867Z,1.85
2023-03-26T15:37:06.733Z,0.63
2023-03-26T15:40:08.502Z,2.10
2023-03-26T15:42:49.140Z,0.43
2023-03-26T15:45:27.520Z,0.50
2023-03-26T15:48:10.423Z,0.40
2023-03-26T15:50:49.313Z,0.60
2023-03-26T15:53:24.772Z,0.85
2023-03-26T15:56:02.929Z,0.70
2023-03-26T16:01:19.039Z,0.50
2023-03-26T16:03:58.568Z,3.50
2023-03-26T16:06:31.754Z,1.27
2023-03-26T16:09:12.662Z,0.40
2023-03-26T16:11:53.103Z,0.90
2023-03-26T16:14:24.073Z,0.98
2023-03-26T16:16:56.375Z,0.77
2023-03-26T16:19:37.117Z,0.70
2023-03-26T16:22:09.612Z,0.60
2023-03-26T16:24:40.833Z,0.60
2023-03-26T16:27:28.907Z,1.00
2023-03-26T16:30:30.294Z,4.18
2023-03-26T16:33:06.278Z,0.60
2023-03-26T16:36:01.825Z,0.68
2023-03-26T16:38:50.108Z,1.42
2023-03-26T16:41:19.408Z,0.85
2023-03-26T16:44:04.815Z,2.33
2023-03-26T16:46:43.906Z,2.97
2023-03-26T16:49:23.841Z,1.55
2023-03-26T16:52:01.779Z,0.57
2023-03-26T16:54:41.033Z,0.60
2023-03-26T16:57:20.177Z,6.13
2023-03-26T17:00:05.194Z,0.60
2023-03-26T17:02:37.439Z,0.73
2023-03-26T17:05:18.877Z,1.40
2023-03-26T17:07:55.441Z,5.65
2023-03-26T17:10:31.766Z,0.65
2023-03-26T17:13:06.101Z,0.60
2023-03-26T17:15:43.543Z,2.80
2023-03-26T17:18:33.597Z,1.10
2023-03-26T17:21:05.439Z,2.20
2023-03-26T17:24:04.686Z,0.95
2023-03-26T17:26:42.184Z,1.08
2023-03-26T17:29:27.252Z,0.85
2023-03-26T17:32:02.021Z,2.70
2023-03-26T17:34:46.769Z,0.60
2023-03-26T17:37:33.358Z,4.00
2023-03-26T17:40:38.156Z,0.60
2023-03-26T17:43:11.085Z,0.68
2023-03-26T17:45:40.307Z,0.70
2023-03-26T17:48:17.579Z,2.75
2023-03-26T17:50:51.758Z,1.08
2023-03-26T17:53:24.117Z,0.60
2023-03-26T17:55:53.216Z,1.13
2023-03-26T17:58:27.955Z,1.05
2023-03-26T18:01:05.837Z,0.60
2023-03-26T18:03:37.235Z,0.80
2023-03-26T18:06:10.103Z,0.70
2023-03-26T18:09:05.658Z,1.45
2023-03-26T18:12:14.348Z,0.80
2023-03-26T18:15:08.053Z,1.75
2023-03-26T18:17:42.607Z,2.47
2023-03-26T18:20:21.369Z,1.27
2023-03-26T18:22:50.490Z,4.20
2023-03-26T18:25:27.477Z,1.40
2023-03-26T18:27:57.250Z,0.90
2023-03-26T18:30:26.939Z,2.58
2023-03-26T18:33:01.393Z,1.48
2023-03-26T18:35:42.748Z,1.88
2023-03-26T18:38:16.854Z,5.15
2023-03-26T18:40:46.285Z,1.90
2023-03-26T18:43:25.389Z,1.15
2023-03-26T18:46:05.083Z,3.53
2023-03-26T18:48:33.190Z,1.85
2023-03-26T18:51:04.729Z,1.65
2023-03-26T18:53:40.085Z,3.15
2023-03-26T18:56:21.406Z,3.55
2023-03-26T18:58:52.829Z,1.92
2023-03-26T19:01:26.118Z,2.50
2023-03-26T19:03:55.210Z,3.85
2023-03-26T19:06:24.239Z,1.98
2023-03-26T19:08:52.318Z,4.88
2023-03-26T19:11:20.256Z,1.30
2023-03-26T19:13:59.275Z,1.88
2023-03-26T19:16:33.853Z,11.45
2023-03-26T19:19:03.761Z,3.65
2023-03-26T19:21:32.969Z,2.22
2023-03-26T19:24:02.490Z,4.75
2023-03-26T19:26:31.384Z,3.90
2023-03-26T19:29:00.697Z,5.22
2023-03-26T19:31:35.158Z,1.98
2023-03-26T19:34:13.500Z,3.65
2023-03-26T19:36:57.437Z,2.08
2023-03-26T19:39:36.735Z,1.83
2023-03-26T19:42:07.015Z,2.25
2023-03-26T19:44:39.435Z,3.40
2023-03-26T19:47:16.098Z,1.98
2023-03-26T19:49:52.826Z,2.05
2023-03-26T19:52:26.460Z,2.50
2023-03-26T19:54:59.788Z,1.20
2023-03-26T19:57:32.936Z,1.55
2023-03-26T20:00:01.119Z,0.77
2023-03-26T20:02:30.416Z,2.85
2023-03-26T20:04:58.356Z,0.95
2023-03-26T20:07:34.894Z,1.67
2023-03-26T20:10:05.355Z,0.70
2023-03-26T20:12:33.719Z,0.80
2023-03-26T20:15:02.713Z,2.15
2023-03-26T20:17:34.806Z,0.50
2023-03-26T20:20:05.596Z,0.60
2023-03-26T20:22:33.432Z,0.60
2023-03-26T20:25:03.125Z,2.88
2023-03-26T20:27:31.032Z,0.40
2023-03-26T20:29:58.906Z,1.00
2023-03-26T20:32:27.410Z,1.00
2023-03-26T20:34:57.672Z,0.98
2023-03-26T20:37:25.611Z,0.75
2023-03-26T20:39:53.431Z,0.70
2023-03-26T20:42:21.406Z,0.77
2023-03-26T20:44:49.246Z,1.48
2023-03-26T20:47:17.216Z,1.13
2023-03-26T20:49:45.842Z,1.40
2023-03-26T20:52:15.398Z,1.33
2023-03-26T20:54:43.522Z,1.45
2023-03-26T20:57:13.312Z,1.17
2023-03-26T20:59:41.849Z,0.63
2023-03-26T21:02:12.099Z,0.70
2023-03-26T21:04:40.030Z,0.80
2023-03-26T21:07:17.815Z,1.10
2023-03-26T21:09:48.807Z,1.73
2023-03-26T21:12:26.261Z,0.93
2023-03-26T21:14:55.836Z,1.58
2023-03-26T21:17:24.536Z,0.77
2023-03-26T21:19:52.637Z,1.35
2023-03-26T21:22:29.821Z,1.02
2023-03-26T21:25:10.495Z,2.50
2023-03-26T21:27:48.034Z,4.18
2023-03-26T21:30:17.583Z,1.38
2023-03-26T21:32:46.577Z,1.20
2023-03-26T21:35:16.688Z,1.85
2023-03-26T21:37:46.865Z,1.95
2023-03-26T21:40:18.776Z,1.20
2023-03-26T21:42:48.835Z,1.00
2023-03-26T21:45:18.174Z,1.85
2023-03-26T21:47:47.504Z,1.25
2023-03-26T21:50:18.009Z,1.30
2023-03-26T21:52:49.879Z,13.35
2023-03-26T21:55:21.353Z,0.95
2023-03-26T21:58:06.470Z,8.02
2023-03-26T22:00:43.748Z,1.08
2023-03-26T22:03:19.384Z,2.30
2023-03-26T22:05:54.642Z,1.75
2023-03-26T22:08:28.577Z,3.80
2023-03-26T22:10:58.212Z,2.45
2023-03-26T22:13:27.224Z,2.95
2023-03-26T22:15:56.738Z,4.70
2023-03-26T22:18:25.984Z,8.38
2023-03-26T22:20:54.310Z,2.53
2023-03-26T22:23:22.518Z,4.57
2023-03-26T22:25:50.561Z,2.40
2023-03-26T22:28:20.169Z,4.00
2023-03-26T22:30:48.171Z,5.90
2023-03-26T22:33:17.838Z,4.20
2023-03-26T22:35:46.375Z,2.83
2023-03-26T22:38:14.901Z,3.90
2023-03-26T22:40:42.755Z,2.05
2023-03-26T22:43:10.612Z,1.52
2023-03-26T22:45:39.900Z,2.22
2023-03-26T22:48:08.364Z,5.70
2023-03-26T22:50:36.737Z,2.30
2023-03-26T22:53:04.809Z,2.13
2023-03-26T22:55:32.975Z,2.45
2023-03-26T22:58:00.824Z,4.72
2023-03-26T23:00:29.028Z,1.70
2023-03-26T23:03:00.619Z,2.47
2023-03-26T23:05:29.276Z,2.50
2023-03-26T23:07:57.181Z,3.15
2023-03-26T23:10:25.034Z,3.92
2023-03-26T23:12:53.392Z,1.45
2023-03-26T23:15:22.076Z,0.98
2023-03-26T23:17:54.786Z,2.03
2023-03-26T23:20:24.504Z,1.05
2023-03-26T23:22:52.526Z,1.05
2023-03-26T23:25:20.750Z,1.55
2023-03-26T23:27:50.537Z,0.98
2023-03-26T23:30:19.062Z,2.13
2023-03-26T23:32:49.855Z,0.80
2023-03-26T23:35:19.703Z,1.38
2023-03-26T23:37:50.853Z,1.90
2023-03-26T23:40:18.981Z,2.38
2023-03-26T23:42:47.391Z,1.13
2023-03-26T23:45:16.629Z,0.77
2023-03-26T23:47:44.546Z,1.08
2023-03-26T23:50:12.841Z,0.95
2023-03-26T23:52:40.826Z,0.73
2023-03-26T23:55:10.565Z,0.70
2023-03-26T23:57:38.529Z,2.13
